CN-0063 weather

Guiping Mengshu Air Base
Guangxi Autonomous Region, China

Public forecast

Using degrees Celsius for public forecast. Weather courtesy of forecast.io.

Closest aviation weather report (METAR) to Guiping Mengshu Air Base

Closest report is Nanning Wuxu Airport, 110.4 nm (204.5 km) WSW. Retrieved 2020/06/03 16:00 UTC (57 minutes ago):

ZGNN 031600Z VRB01MPS 9999 FEW013 27/25 Q1006 NOSIG

Closest aviation forecast (TAF) to Guiping Mengshu Air Base

Forecast is more than 12 hours old.

Closest forecast is Liuzhou Bailian Airport, 62.6 nm (116.0 km) NNW. Retrieved 2009/10/18 09:44 UTC (11 years ago):

TAF ZGZH 180944Z 1812/1912 VRB01MPS 7000 NSC BECMG 1815/1816 5000 BR BECMG 1821/1822 3000 BR BECMG 1902/1903 33003MPS 5000 HZ BKN036 TX30/1907Z TN18/1823Z